sensor_id;sensor_type;location;lat;lon;timestamp;P1;durP1;ratioP1;P2;durP2;ratioP2
76495;SDS011;65329;52.544;4.662;2022-12-13T00:01:22;15.13;;;9.52;;
76495;SDS011;65329;52.544;4.662;2022-12-13T00:03:53;15.25;;;9.25;;
76495;SDS011;65329;52.544;4.662;2022-12-13T00:06:22;14.82;;;8.50;;
76495;SDS011;65329;52.544;4.662;2022-12-13T00:08:50;13.90;;;8.55;;
76495;SDS011;65329;52.544;4.662;2022-12-13T00:11:17;13.25;;;9.10;;
76495;SDS011;65329;52.544;4.662;2022-12-13T00:13:44;14.43;;;8.80;;
76495;SDS011;65329;52.544;4.662;2022-12-13T00:16:17;13.75;;;8.98;;
76495;SDS011;65329;52.544;4.662;2022-12-13T00:18:48;14.52;;;8.50;;
76495;SDS011;65329;52.544;4.662;2022-12-13T00:21:17;14.13;;;9.45;;
76495;SDS011;65329;52.544;4.662;2022-12-13T00:23:45;15.40;;;9.32;;
76495;SDS011;65329;52.544;4.662;2022-12-13T00:26:14;15.13;;;9.18;;
76495;SDS011;65329;52.544;4.662;2022-12-13T00:28:44;16.30;;;10.10;;
76495;SDS011;65329;52.544;4.662;2022-12-13T00:31:13;16.42;;;9.70;;
76495;SDS011;65329;52.544;4.662;2022-12-13T00:34:01;17.67;;;9.65;;
76495;SDS011;65329;52.544;4.662;2022-12-13T00:36:27;15.35;;;10.07;;
76495;SDS011;65329;52.544;4.662;2022-12-13T00:38:54;16.35;;;9.98;;
76495;SDS011;65329;52.544;4.662;2022-12-13T00:41:28;16.55;;;10.10;;
76495;SDS011;65329;52.544;4.662;2022-12-13T00:43:57;13.95;;;9.32;;
76495;SDS011;65329;52.544;4.662;2022-12-13T00:46:25;17.05;;;10.65;;
76495;SDS011;65329;52.544;4.662;2022-12-13T00:48:53;20.00;;;11.48;;
76495;SDS011;65329;52.544;4.662;2022-12-13T00:51:21;16.90;;;9.95;;
76495;SDS011;65329;52.544;4.662;2022-12-13T00:53:49;19.17;;;10.77;;
76495;SDS011;65329;52.544;4.662;2022-12-13T00:56:17;23.55;;;11.30;;
76495;SDS011;65329;52.544;4.662;2022-12-13T00:58:47;19.75;;;11.25;;
76495;SDS011;65329;52.544;4.662;2022-12-13T01:01:19;19.30;;;11.93;;
76495;SDS011;65329;52.544;4.662;2022-12-13T01:03:52;18.77;;;10.65;;
76495;SDS011;65329;52.544;4.662;2022-12-13T01:06:20;17.27;;;10.23;;
76495;SDS011;65329;52.544;4.662;2022-12-13T01:08:59;18.33;;;10.43;;
76495;SDS011;65329;52.544;4.662;2022-12-13T01:11:26;18.27;;;10.25;;
76495;SDS011;65329;52.544;4.662;2022-12-13T01:13:53;18.33;;;10.00;;
76495;SDS011;65329;52.544;4.662;2022-12-13T01:16:20;16.05;;;9.50;;
76495;SDS011;65329;52.544;4.662;2022-12-13T01:18:47;15.13;;;9.25;;
76495;SDS011;65329;52.544;4.662;2022-12-13T01:21:14;16.20;;;9.38;;
76495;SDS011;65329;52.544;4.662;2022-12-13T01:23:43;16.85;;;9.45;;
76495;SDS011;65329;52.544;4.662;2022-12-13T01:26:12;13.98;;;8.43;;
76495;SDS011;65329;52.544;4.662;2022-12-13T01:28:41;15.38;;;8.90;;
76495;SDS011;65329;52.544;4.662;2022-12-13T01:31:09;17.85;;;8.45;;
76495;SDS011;65329;52.544;4.662;2022-12-13T01:33:38;15.95;;;9.00;;
76495;SDS011;65329;52.544;4.662;2022-12-13T01:36:07;13.63;;;8.18;;
76495;SDS011;65329;52.544;4.662;2022-12-13T01:38:38;14.35;;;8.30;;
76495;SDS011;65329;52.544;4.662;2022-12-13T01:41:04;14.50;;;8.18;;
76495;SDS011;65329;52.544;4.662;2022-12-13T01:46:10;12.90;;;7.97;;
76495;SDS011;65329;52.544;4.662;2022-12-13T01:48:46;14.05;;;7.80;;
76495;SDS011;65329;52.544;4.662;2022-12-13T01:51:17;13.35;;;8.23;;
76495;SDS011;65329;52.544;4.662;2022-12-13T01:53:46;15.05;;;8.32;;
76495;SDS011;65329;52.544;4.662;2022-12-13T01:56:17;11.85;;;7.43;;
76495;SDS011;65329;52.544;4.662;2022-12-13T01:58:52;11.98;;;7.72;;
76495;SDS011;65329;52.544;4.662;2022-12-13T02:01:21;11.68;;;7.43;;
76495;SDS011;65329;52.544;4.662;2022-12-13T02:03:48;13.63;;;8.32;;
76495;SDS011;65329;52.544;4.662;2022-12-13T02:06:16;12.48;;;7.82;;
76495;SDS011;65329;52.544;4.662;2022-12-13T02:08:47;12.55;;;8.18;;
76495;SDS011;65329;52.544;4.662;2022-12-13T02:11:14;10.88;;;7.38;;
76495;SDS011;65329;52.544;4.662;2022-12-13T02:13:41;11.88;;;6.65;;
76495;SDS011;65329;52.544;4.662;2022-12-13T02:32:44;13.20;;;7.50;;
76495;SDS011;65329;52.544;4.662;2022-12-13T02:35:41;14.35;;;7.40;;
76495;SDS011;65329;52.544;4.662;2022-12-13T02:38:26;13.82;;;7.35;;
76495;SDS011;65329;52.544;4.662;2022-12-13T02:41:03;13.40;;;7.20;;
76495;SDS011;65329;52.544;4.662;2022-12-13T02:43:38;13.63;;;7.53;;
76495;SDS011;65329;52.544;4.662;2022-12-13T02:46:11;12.50;;;7.00;;
76495;SDS011;65329;52.544;4.662;2022-12-13T02:48:41;11.00;;;6.60;;
76495;SDS011;65329;52.544;4.662;2022-12-13T02:51:09;9.93;;;6.50;;
76495;SDS011;65329;52.544;4.662;2022-12-13T02:53:38;10.80;;;7.22;;
76495;SDS011;65329;52.544;4.662;2022-12-13T02:56:07;12.70;;;7.40;;
76495;SDS011;65329;52.544;4.662;2022-12-13T02:58:35;12.40;;;6.85;;
76495;SDS011;65329;52.544;4.662;2022-12-13T03:04:00;10.90;;;6.88;;
76495;SDS011;65329;52.544;4.662;2022-12-13T03:21:01;9.90;;;6.75;;
76495;SDS011;65329;52.544;4.662;2022-12-13T03:23:29;11.40;;;6.80;;
76495;SDS011;65329;52.544;4.662;2022-12-13T03:26:12;10.63;;;6.22;;
76495;SDS011;65329;52.544;4.662;2022-12-13T03:28:42;10.85;;;7.18;;
76495;SDS011;65329;52.544;4.662;2022-12-13T03:31:09;10.13;;;6.70;;
76495;SDS011;65329;52.544;4.662;2022-12-13T03:33:36;11.30;;;6.40;;
76495;SDS011;65329;52.544;4.662;2022-12-13T03:36:04;10.68;;;6.40;;
76495;SDS011;65329;52.544;4.662;2022-12-13T03:38:32;10.15;;;6.38;;
76495;SDS011;65329;52.544;4.662;2022-12-13T03:41:00;10.63;;;6.38;;
76495;SDS011;65329;52.544;4.662;2022-12-13T03:43:31;10.50;;;6.63;;
76495;SDS011;65329;52.544;4.662;2022-12-13T03:45:58;11.52;;;6.75;;
76495;SDS011;65329;52.544;4.662;2022-12-13T03:48:26;10.75;;;6.28;;
76495;SDS011;65329;52.544;4.662;2022-12-13T03:50:53;10.32;;;6.82;;
76495;SDS011;65329;52.544;4.662;2022-12-13T03:53:20;12.00;;;6.55;;
76495;SDS011;65329;52.544;4.662;2022-12-13T03:56:01;10.40;;;6.22;;
76495;SDS011;65329;52.544;4.662;2022-12-13T03:58:29;9.55;;;5.80;;
76495;SDS011;65329;52.544;4.662;2022-12-13T04:01:12;11.15;;;6.72;;
76495;SDS011;65329;52.544;4.662;2022-12-13T04:03:43;11.63;;;6.30;;
76495;SDS011;65329;52.544;4.662;2022-12-13T04:06:11;9.88;;;6.45;;
76495;SDS011;65329;52.544;4.662;2022-12-13T04:08:49;9.18;;;5.85;;
76495;SDS011;65329;52.544;4.662;2022-12-13T04:11:17;10.40;;;6.93;;
76495;SDS011;65329;52.544;4.662;2022-12-13T04:14:09;9.82;;;6.15;;
76495;SDS011;65329;52.544;4.662;2022-12-13T04:16:37;12.68;;;7.10;;
76495;SDS011;65329;52.544;4.662;2022-12-13T04:19:04;11.23;;;6.82;;
76495;SDS011;65329;52.544;4.662;2022-12-13T04:21:30;9.63;;;6.63;;
76495;SDS011;65329;52.544;4.662;2022-12-13T04:23:59;10.65;;;6.60;;
76495;SDS011;65329;52.544;4.662;2022-12-13T04:26:27;12.23;;;6.25;;
76495;SDS011;65329;52.544;4.662;2022-12-13T04:28:54;11.25;;;6.28;;
76495;SDS011;65329;52.544;4.662;2022-12-13T04:31:21;8.82;;;6.05;;
76495;SDS011;65329;52.544;4.662;2022-12-13T04:33:48;10.52;;;7.40;;
76495;SDS011;65329;52.544;4.662;2022-12-13T04:36:16;11.00;;;7.03;;
76495;SDS011;65329;52.544;4.662;2022-12-13T04:38:58;10.88;;;6.75;;
76495;SDS011;65329;52.544;4.662;2022-12-13T04:41:48;11.40;;;6.68;;
76495;SDS011;65329;52.544;4.662;2022-12-13T04:44:17;10.65;;;6.45;;
76495;SDS011;65329;52.544;4.662;2022-12-13T04:46:55;9.27;;;6.20;;
76495;SDS011;65329;52.544;4.662;2022-12-13T04:49:27;9.82;;;6.70;;
76495;SDS011;65329;52.544;4.662;2022-12-13T04:51:57;9.48;;;6.10;;
76495;SDS011;65329;52.544;4.662;2022-12-13T04:54:26;9.02;;;5.60;;
76495;SDS011;65329;52.544;4.662;2022-12-13T04:57:03;10.23;;;6.30;;
76495;SDS011;65329;52.544;4.662;2022-12-13T04:59:32;12.45;;;6.35;;
76495;SDS011;65329;52.544;4.662;2022-12-13T05:01:58;8.77;;;6.43;;
76495;SDS011;65329;52.544;4.662;2022-12-13T05:04:25;9.52;;;6.07;;
76495;SDS011;65329;52.544;4.662;2022-12-13T05:06:58;8.93;;;5.82;;
76495;SDS011;65329;52.544;4.662;2022-12-13T05:09:25;9.38;;;6.32;;
76495;SDS011;65329;52.544;4.662;2022-12-13T05:11:51;9.77;;;6.68;;
76495;SDS011;65329;52.544;4.662;2022-12-13T05:14:27;9.35;;;6.15;;
76495;SDS011;65329;52.544;4.662;2022-12-13T05:16:57;9.98;;;6.13;;
76495;SDS011;65329;52.544;4.662;2022-12-13T05:19:25;11.32;;;6.35;;
76495;SDS011;65329;52.544;4.662;2022-12-13T05:21:56;11.23;;;7.28;;
76495;SDS011;65329;52.544;4.662;2022-12-13T05:24:27;11.90;;;6.57;;
76495;SDS011;65329;52.544;4.662;2022-12-13T05:26:54;9.55;;;6.72;;
76495;SDS011;65329;52.544;4.662;2022-12-13T05:29:20;9.30;;;5.85;;
76495;SDS011;65329;52.544;4.662;2022-12-13T05:31:47;9.68;;;5.97;;
76495;SDS011;65329;52.544;4.662;2022-12-13T05:34:14;9.15;;;5.80;;
76495;SDS011;65329;52.544;4.662;2022-12-13T05:36:40;11.75;;;6.25;;
76495;SDS011;65329;52.544;4.662;2022-12-13T05:39:07;11.38;;;6.53;;
76495;SDS011;65329;52.544;4.662;2022-12-13T05:41:54;9.63;;;6.60;;
76495;SDS011;65329;52.544;4.662;2022-12-13T05:44:28;9.25;;;6.40;;
76495;SDS011;65329;52.544;4.662;2022-12-13T05:46:58;11.18;;;6.10;;
76495;SDS011;65329;52.544;4.662;2022-12-13T05:49:28;9.70;;;6.18;;
76495;SDS011;65329;52.544;4.662;2022-12-13T05:51:55;8.80;;;5.72;;
76495;SDS011;65329;52.544;4.662;2022-12-13T05:54:22;9.38;;;5.78;;
76495;SDS011;65329;52.544;4.662;2022-12-13T05:56:48;8.55;;;5.75;;
76495;SDS011;65329;52.544;4.662;2022-12-13T05:59:15;9.88;;;5.65;;
76495;SDS011;65329;52.544;4.662;2022-12-13T06:01:42;10.43;;;6.60;;
76495;SDS011;65329;52.544;4.662;2022-12-13T06:04:09;9.30;;;5.93;;
76495;SDS011;65329;52.544;4.662;2022-12-13T06:06:47;8.50;;;6.15;;
76495;SDS011;65329;52.544;4.662;2022-12-13T06:09:16;9.52;;;6.13;;
76495;SDS011;65329;52.544;4.662;2022-12-13T06:11:44;10.20;;;7.03;;
76495;SDS011;65329;52.544;4.662;2022-12-13T06:14:10;8.52;;;6.68;;
76495;SDS011;65329;52.544;4.662;2022-12-13T06:16:47;10.70;;;6.80;;
76495;SDS011;65329;52.544;4.662;2022-12-13T06:19:14;11.27;;;6.95;;
76495;SDS011;65329;52.544;4.662;2022-12-13T06:21:40;12.38;;;6.68;;
76495;SDS011;65329;52.544;4.662;2022-12-13T06:24:15;11.68;;;6.85;;
76495;SDS011;65329;52.544;4.662;2022-12-13T06:26:43;9.93;;;7.32;;
76495;SDS011;65329;52.544;4.662;2022-12-13T06:29:12;12.05;;;7.00;;
76495;SDS011;65329;52.544;4.662;2022-12-13T06:31:53;11.77;;;6.93;;
76495;SDS011;65329;52.544;4.662;2022-12-13T06:34:31;12.57;;;7.07;;
76495;SDS011;65329;52.544;4.662;2022-12-13T06:37:00;11.95;;;7.07;;
76495;SDS011;65329;52.544;4.662;2022-12-13T06:39:27;11.00;;;6.70;;
76495;SDS011;65329;52.544;4.662;2022-12-13T06:41:59;9.60;;;6.20;;
76495;SDS011;65329;52.544;4.662;2022-12-13T06:44:27;10.85;;;6.95;;
76495;SDS011;65329;52.544;4.662;2022-12-13T06:46:54;10.10;;;6.75;;
76495;SDS011;65329;52.544;4.662;2022-12-13T06:49:37;10.75;;;6.95;;
76495;SDS011;65329;52.544;4.662;2022-12-13T06:52:07;11.82;;;7.15;;
76495;SDS011;65329;52.544;4.662;2022-12-13T06:54:40;14.07;;;7.32;;
76495;SDS011;65329;52.544;4.662;2022-12-13T06:57:10;10.63;;;6.82;;
76495;SDS011;65329;52.544;4.662;2022-12-13T06:59:40;12.10;;;7.03;;
76495;SDS011;65329;52.544;4.662;2022-12-13T07:02:08;11.15;;;6.63;;
76495;SDS011;65329;52.544;4.662;2022-12-13T07:04:55;10.05;;;6.72;;
76495;SDS011;65329;52.544;4.662;2022-12-13T07:07:22;9.75;;;6.60;;
76495;SDS011;65329;52.544;4.662;2022-12-13T07:09:50;10.55;;;6.78;;
76495;SDS011;65329;52.544;4.662;2022-12-13T07:12:18;11.52;;;7.22;;
76495;SDS011;65329;52.544;4.662;2022-12-13T07:14:46;10.85;;;7.22;;
76495;SDS011;65329;52.544;4.662;2022-12-13T07:17:13;11.98;;;7.78;;
76495;SDS011;65329;52.544;4.662;2022-12-13T07:20:03;11.90;;;7.72;;
76495;SDS011;65329;52.544;4.662;2022-12-13T07:22:36;12.20;;;8.00;;
76495;SDS011;65329;52.544;4.662;2022-12-13T07:25:12;11.25;;;7.65;;
76495;SDS011;65329;52.544;4.662;2022-12-13T07:27:55;11.88;;;7.18;;
76495;SDS011;65329;52.544;4.662;2022-12-13T07:30:27;13.18;;;7.60;;
76495;SDS011;65329;52.544;4.662;2022-12-13T07:33:02;14.15;;;8.15;;
76495;SDS011;65329;52.544;4.662;2022-12-13T07:35:31;10.88;;;6.55;;
76495;SDS011;65329;52.544;4.662;2022-12-13T07:38:07;9.23;;;6.38;;
76495;SDS011;65329;52.544;4.662;2022-12-13T07:40:35;10.27;;;6.32;;
76495;SDS011;65329;52.544;4.662;2022-12-13T07:43:04;10.50;;;7.25;;
76495;SDS011;65329;52.544;4.662;2022-12-13T07:45:31;8.80;;;6.47;;
76495;SDS011;65329;52.544;4.662;2022-12-13T07:48:01;9.73;;;6.53;;
76495;SDS011;65329;52.544;4.662;2022-12-13T07:50:29;9.75;;;7.18;;
76495;SDS011;65329;52.544;4.662;2022-12-13T07:53:04;10.15;;;6.88;;
76495;SDS011;65329;52.544;4.662;2022-12-13T07:55:32;10.27;;;6.47;;
76495;SDS011;65329;52.544;4.662;2022-12-13T07:58:07;10.70;;;6.63;;
76495;SDS011;65329;52.544;4.662;2022-12-13T08:00:37;10.57;;;6.25;;
76495;SDS011;65329;52.544;4.662;2022-12-13T08:03:05;10.32;;;7.07;;
76495;SDS011;65329;52.544;4.662;2022-12-13T08:05:33;10.95;;;6.38;;
76495;SDS011;65329;52.544;4.662;2022-12-13T08:08:05;9.60;;;6.03;;
76495;SDS011;65329;52.544;4.662;2022-12-13T08:10:35;9.00;;;6.47;;
76495;SDS011;65329;52.544;4.662;2022-12-13T08:13:02;9.18;;;5.97;;
76495;SDS011;65329;52.544;4.662;2022-12-13T08:15:30;8.70;;;5.65;;
76495;SDS011;65329;52.544;4.662;2022-12-13T08:17:57;8.73;;;6.28;;
76495;SDS011;65329;52.544;4.662;2022-12-13T08:20:26;10.23;;;6.75;;
76495;SDS011;65329;52.544;4.662;2022-12-13T08:22:53;10.65;;;6.60;;
76495;SDS011;65329;52.544;4.662;2022-12-13T08:25:28;8.95;;;6.45;;
76495;SDS011;65329;52.544;4.662;2022-12-13T08:27:55;9.23;;;6.38;;
76495;SDS011;65329;52.544;4.662;2022-12-13T08:30:28;11.88;;;7.25;;
76495;SDS011;65329;52.544;4.662;2022-12-13T08:32:57;10.18;;;6.10;;
76495;SDS011;65329;52.544;4.662;2022-12-13T08:35:30;9.48;;;6.15;;
76495;SDS011;65329;52.544;4.662;2022-12-13T08:38:00;9.38;;;5.97;;
76495;SDS011;65329;52.544;4.662;2022-12-13T08:40:26;8.10;;;6.03;;
76495;SDS011;65329;52.544;4.662;2022-12-13T08:42:54;9.45;;;6.50;;
76495;SDS011;65329;52.544;4.662;2022-12-13T08:45:21;9.35;;;6.15;;
76495;SDS011;65329;52.544;4.662;2022-12-13T08:47:52;10.10;;;6.43;;
76495;SDS011;65329;52.544;4.662;2022-12-13T08:50:22;11.15;;;6.65;;
76495;SDS011;65329;52.544;4.662;2022-12-13T08:52:49;9.55;;;6.15;;
76495;SDS011;65329;52.544;4.662;2022-12-13T08:55:17;10.23;;;6.00;;
76495;SDS011;65329;52.544;4.662;2022-12-13T08:57:57;9.15;;;6.13;;
76495;SDS011;65329;52.544;4.662;2022-12-13T09:00:26;10.38;;;6.72;;
76495;SDS011;65329;52.544;4.662;2022-12-13T11:48:42;18.80;;;9.18;;
76495;SDS011;65329;52.544;4.662;2022-12-13T11:51:15;20.38;;;10.65;;
76495;SDS011;65329;52.544;4.662;2022-12-13T11:54:00;18.48;;;10.00;;
76495;SDS011;65329;52.544;4.662;2022-12-13T11:56:36;19.25;;;10.10;;
76495;SDS011;65329;52.544;4.662;2022-12-13T12:04:55;18.02;;;10.18;;
76495;SDS011;65329;52.544;4.662;2022-12-13T12:07:28;17.95;;;10.18;;
76495;SDS011;65329;52.544;4.662;2022-12-13T12:12:57;17.02;;;10.63;;
76495;SDS011;65329;52.544;4.662;2022-12-13T12:15:39;18.20;;;10.00;;
76495;SDS011;65329;52.544;4.662;2022-12-13T12:18:12;18.70;;;10.30;;
76495;SDS011;65329;52.544;4.662;2022-12-13T12:20:58;22.90;;;10.10;;
76495;SDS011;65329;52.544;4.662;2022-12-13T12:32:09;20.60;;;10.68;;
76495;SDS011;65329;52.544;4.662;2022-12-13T12:45:58;19.45;;;9.95;;
76495;SDS011;65329;52.544;4.662;2022-12-13T12:48:54;19.05;;;10.82;;
76495;SDS011;65329;52.544;4.662;2022-12-13T12:57:34;19.63;;;10.52;;
76495;SDS011;65329;52.544;4.662;2022-12-13T13:10:26;18.90;;;10.45;;
76495;SDS011;65329;52.544;4.662;2022-12-13T13:12:54;19.25;;;10.60;;
76495;SDS011;65329;52.544;4.662;2022-12-13T13:18:07;20.23;;;11.20;;
76495;SDS011;65329;52.544;4.662;2022-12-13T13:26:27;22.60;;;11.27;;
76495;SDS011;65329;52.544;4.662;2022-12-13T13:38:24;24.55;;;10.93;;
76495;SDS011;65329;52.544;4.662;2022-12-13T13:50:01;20.08;;;11.18;;
76495;SDS011;65329;52.544;4.662;2022-12-13T14:04:00;22.02;;;11.80;;
76495;SDS011;65329;52.544;4.662;2022-12-13T14:18:39;20.92;;;11.20;;
76495;SDS011;65329;52.544;4.662;2022-12-13T14:29:03;20.23;;;11.45;;
76495;SDS011;65329;52.544;4.662;2022-12-13T14:31:39;20.65;;;12.60;;
76495;SDS011;65329;52.544;4.662;2022-12-13T14:34:16;22.38;;;11.90;;
76495;SDS011;65329;52.544;4.662;2022-12-13T14:39:46;21.88;;;12.07;;
76495;SDS011;65329;52.544;4.662;2022-12-13T14:42:25;20.10;;;12.20;;
76495;SDS011;65329;52.544;4.662;2022-12-13T14:47:52;22.48;;;12.45;;
76495;SDS011;65329;52.544;4.662;2022-12-13T14:50:21;23.23;;;12.50;;
76495;SDS011;65329;52.544;4.662;2022-12-13T14:52:51;23.23;;;12.68;;
76495;SDS011;65329;52.544;4.662;2022-12-13T14:55:23;23.35;;;12.95;;
76495;SDS011;65329;52.544;4.662;2022-12-13T14:57:57;23.95;;;12.55;;
76495;SDS011;65329;52.544;4.662;2022-12-13T15:00:27;22.77;;;12.35;;
76495;SDS011;65329;52.544;4.662;2022-12-13T15:02:58;22.80;;;12.80;;
76495;SDS011;65329;52.544;4.662;2022-12-13T15:05:27;24.25;;;14.18;;
76495;SDS011;65329;52.544;4.662;2022-12-13T15:07:57;21.10;;;12.35;;
76495;SDS011;65329;52.544;4.662;2022-12-13T15:10:37;23.77;;;12.95;;
76495;SDS011;65329;52.544;4.662;2022-12-13T15:16:00;23.15;;;13.25;;
76495;SDS011;65329;52.544;4.662;2022-12-13T15:18:43;22.40;;;13.05;;
76495;SDS011;65329;52.544;4.662;2022-12-13T15:21:21;25.98;;;12.95;;
76495;SDS011;65329;52.544;4.662;2022-12-13T15:23:55;22.13;;;13.02;;
76495;SDS011;65329;52.544;4.662;2022-12-13T15:26:26;24.20;;;12.85;;
76495;SDS011;65329;52.544;4.662;2022-12-13T15:28:56;22.67;;;12.43;;
76495;SDS011;65329;52.544;4.662;2022-12-13T15:31:26;23.95;;;13.48;;
76495;SDS011;65329;52.544;4.662;2022-12-13T15:33:52;21.17;;;12.85;;
76495;SDS011;65329;52.544;4.662;2022-12-13T15:36:27;23.83;;;13.55;;
76495;SDS011;65329;52.544;4.662;2022-12-13T15:41:23;22.25;;;13.07;;
76495;SDS011;65329;52.544;4.662;2022-12-13T15:43:55;23.70;;;12.98;;
76495;SDS011;65329;52.544;4.662;2022-12-13T15:46:26;22.88;;;13.70;;
76495;SDS011;65329;52.544;4.662;2022-12-13T15:48:56;23.95;;;14.10;;
76495;SDS011;65329;52.544;4.662;2022-12-13T15:51:25;22.30;;;12.80;;
76495;SDS011;65329;52.544;4.662;2022-12-13T15:56:36;23.80;;;14.10;;
76495;SDS011;65329;52.544;4.662;2022-12-13T15:59:27;26.60;;;12.88;;
76495;SDS011;65329;52.544;4.662;2022-12-13T16:02:00;26.35;;;13.55;;
76495;SDS011;65329;52.544;4.662;2022-12-13T16:04:30;27.63;;;13.75;;
76495;SDS011;65329;52.544;4.662;2022-12-13T16:06:58;22.55;;;12.95;;
76495;SDS011;65329;52.544;4.662;2022-12-13T16:09:30;25.65;;;13.77;;
76495;SDS011;65329;52.544;4.662;2022-12-13T16:12:02;22.13;;;13.25;;
76495;SDS011;65329;52.544;4.662;2022-12-13T16:14:36;23.83;;;13.57;;
76495;SDS011;65329;52.544;4.662;2022-12-13T16:17:20;23.58;;;14.18;;
76495;SDS011;65329;52.544;4.662;2022-12-13T16:19:51;23.52;;;14.35;;
76495;SDS011;65329;52.544;4.662;2022-12-13T16:22:19;23.35;;;13.73;;
76495;SDS011;65329;52.544;4.662;2022-12-13T16:24:50;24.38;;;14.10;;
76495;SDS011;65329;52.544;4.662;2022-12-13T16:27:18;21.42;;;12.80;;
76495;SDS011;65329;52.544;4.662;2022-12-13T16:29:45;23.48;;;13.23;;
76495;SDS011;65329;52.544;4.662;2022-12-13T16:32:11;23.38;;;12.95;;
76495;SDS011;65329;52.544;4.662;2022-12-13T16:34:41;22.10;;;13.77;;
76495;SDS011;65329;52.544;4.662;2022-12-13T16:37:08;27.15;;;14.70;;
76495;SDS011;65329;52.544;4.662;2022-12-13T16:39:52;25.48;;;14.27;;
76495;SDS011;65329;52.544;4.662;2022-12-13T16:42:19;23.98;;;13.02;;
76495;SDS011;65329;52.544;4.662;2022-12-13T16:47:37;25.27;;;13.05;;
76495;SDS011;65329;52.544;4.662;2022-12-13T16:50:14;21.92;;;13.07;;
76495;SDS011;65329;52.544;4.662;2022-12-13T16:52:44;26.30;;;12.93;;
76495;SDS011;65329;52.544;4.662;2022-12-13T16:55:11;22.25;;;13.50;;
76495;SDS011;65329;52.544;4.662;2022-12-13T16:57:38;22.48;;;12.48;;
76495;SDS011;65329;52.544;4.662;2022-12-13T17:00:05;22.63;;;13.55;;
76495;SDS011;65329;52.544;4.662;2022-12-13T17:02:35;23.15;;;13.10;;
76495;SDS011;65329;52.544;4.662;2022-12-13T17:05:03;21.73;;;12.30;;
76495;SDS011;65329;52.544;4.662;2022-12-13T17:07:31;22.67;;;12.82;;
76495;SDS011;65329;52.544;4.662;2022-12-13T17:10:01;21.75;;;11.93;;
76495;SDS011;65329;52.544;4.662;2022-12-13T17:12:28;23.70;;;12.60;;
76495;SDS011;65329;52.544;4.662;2022-12-13T17:14:54;21.75;;;12.35;;
76495;SDS011;65329;52.544;4.662;2022-12-13T17:17:21;25.10;;;12.70;;
76495;SDS011;65329;52.544;4.662;2022-12-13T17:19:49;24.42;;;14.30;;
76495;SDS011;65329;52.544;4.662;2022-12-13T17:22:16;21.65;;;12.55;;
76495;SDS011;65329;52.544;4.662;2022-12-13T17:24:43;19.70;;;11.80;;
76495;SDS011;65329;52.544;4.662;2022-12-13T17:27:10;21.80;;;12.18;;
76495;SDS011;65329;52.544;4.662;2022-12-13T17:29:37;25.83;;;12.82;;
76495;SDS011;65329;52.544;4.662;2022-12-13T17:32:04;22.80;;;14.10;;
76495;SDS011;65329;52.544;4.662;2022-12-13T17:34:30;21.85;;;11.82;;
76495;SDS011;65329;52.544;4.662;2022-12-13T17:36:57;23.40;;;12.48;;
76495;SDS011;65329;52.544;4.662;2022-12-13T17:39:23;19.70;;;11.90;;
76495;SDS011;65329;52.544;4.662;2022-12-13T17:41:51;24.45;;;12.45;;
76495;SDS011;65329;52.544;4.662;2022-12-13T17:44:20;22.95;;;12.63;;
76495;SDS011;65329;52.544;4.662;2022-12-13T17:46:47;21.83;;;12.43;;
76495;SDS011;65329;52.544;4.662;2022-12-13T17:49:20;21.73;;;11.48;;
76495;SDS011;65329;52.544;4.662;2022-12-13T17:51:47;24.52;;;12.48;;
76495;SDS011;65329;52.544;4.662;2022-12-13T17:54:19;21.58;;;12.13;;
76495;SDS011;65329;52.544;4.662;2022-12-13T17:56:47;24.38;;;12.85;;
76495;SDS011;65329;52.544;4.662;2022-12-13T17:59:14;24.33;;;12.02;;
76495;SDS011;65329;52.544;4.662;2022-12-13T18:01:41;19.38;;;10.85;;
76495;SDS011;65329;52.544;4.662;2022-12-13T18:04:09;26.15;;;13.05;;
76495;SDS011;65329;52.544;4.662;2022-12-13T18:06:38;24.90;;;12.07;;
76495;SDS011;65329;52.544;4.662;2022-12-13T18:09:06;22.88;;;11.68;;
76495;SDS011;65329;52.544;4.662;2022-12-13T18:11:34;22.63;;;12.05;;
76495;SDS011;65329;52.544;4.662;2022-12-13T18:14:05;26.45;;;13.93;;
76495;SDS011;65329;52.544;4.662;2022-12-13T18:16:34;20.30;;;11.88;;
76495;SDS011;65329;52.544;4.662;2022-12-13T18:19:05;17.98;;;10.95;;
76495;SDS011;65329;52.544;4.662;2022-12-13T18:21:34;21.95;;;11.82;;
76495;SDS011;65329;52.544;4.662;2022-12-13T18:24:02;28.95;;;13.10;;
76495;SDS011;65329;52.544;4.662;2022-12-13T18:26:29;25.63;;;12.68;;
76495;SDS011;65329;52.544;4.662;2022-12-13T18:28:56;25.13;;;12.95;;
76495;SDS011;65329;52.544;4.662;2022-12-13T18:31:23;24.08;;;13.73;;
76495;SDS011;65329;52.544;4.662;2022-12-13T18:33:51;23.88;;;12.02;;
76495;SDS011;65329;52.544;4.662;2022-12-13T18:36:20;23.15;;;13.55;;
76495;SDS011;65329;52.544;4.662;2022-12-13T18:38:48;21.73;;;11.35;;
76495;SDS011;65329;52.544;4.662;2022-12-13T18:41:17;27.08;;;12.35;;
76495;SDS011;65329;52.544;4.662;2022-12-13T18:43:45;21.70;;;12.40;;
76495;SDS011;65329;52.544;4.662;2022-12-13T18:46:13;23.23;;;11.50;;
76495;SDS011;65329;52.544;4.662;2022-12-13T18:48:40;22.08;;;13.27;;
76495;SDS011;65329;52.544;4.662;2022-12-13T18:51:08;20.42;;;11.75;;
76495;SDS011;65329;52.544;4.662;2022-12-13T18:53:36;25.02;;;13.38;;
76495;SDS011;65329;52.544;4.662;2022-12-13T18:56:14;24.23;;;13.18;;
76495;SDS011;65329;52.544;4.662;2022-12-13T18:58:45;22.48;;;13.13;;
76495;SDS011;65329;52.544;4.662;2022-12-13T19:01:13;21.13;;;11.80;;
76495;SDS011;65329;52.544;4.662;2022-12-13T19:03:42;22.20;;;12.35;;
76495;SDS011;65329;52.544;4.662;2022-12-13T19:06:14;21.58;;;12.40;;
76495;SDS011;65329;52.544;4.662;2022-12-13T19:08:45;22.98;;;12.23;;
76495;SDS011;65329;52.544;4.662;2022-12-13T19:11:17;21.85;;;12.30;;
76495;SDS011;65329;52.544;4.662;2022-12-13T19:13:45;23.25;;;12.10;;
76495;SDS011;65329;52.544;4.662;2022-12-13T19:16:13;24.85;;;12.02;;
76495;SDS011;65329;52.544;4.662;2022-12-13T19:18:41;25.40;;;12.52;;
76495;SDS011;65329;52.544;4.662;2022-12-13T19:21:10;23.55;;;12.27;;
76495;SDS011;65329;52.544;4.662;2022-12-13T19:23:40;23.15;;;12.23;;
76495;SDS011;65329;52.544;4.662;2022-12-13T19:26:09;22.30;;;11.60;;
76495;SDS011;65329;52.544;4.662;2022-12-13T19:28:42;25.20;;;13.13;;
76495;SDS011;65329;52.544;4.662;2022-12-13T19:31:12;23.60;;;12.80;;
76495;SDS011;65329;52.544;4.662;2022-12-13T19:33:40;21.13;;;11.45;;
76495;SDS011;65329;52.544;4.662;2022-12-13T19:36:08;24.77;;;12.45;;
76495;SDS011;65329;52.544;4.662;2022-12-13T19:38:36;25.02;;;13.63;;
76495;SDS011;65329;52.544;4.662;2022-12-13T19:41:07;22.20;;;11.82;;
76495;SDS011;65329;52.544;4.662;2022-12-13T19:43:35;20.52;;;11.50;;
76495;SDS011;65329;52.544;4.662;2022-12-13T19:46:02;24.45;;;12.57;;
76495;SDS011;65329;52.544;4.662;2022-12-13T19:48:29;27.38;;;13.23;;
76495;SDS011;65329;52.544;4.662;2022-12-13T19:50:57;23.17;;;13.57;;
76495;SDS011;65329;52.544;4.662;2022-12-13T19:53:25;22.55;;;12.88;;
76495;SDS011;65329;52.544;4.662;2022-12-13T19:55:53;24.45;;;13.88;;
76495;SDS011;65329;52.544;4.662;2022-12-13T19:58:20;23.83;;;13.98;;
76495;SDS011;65329;52.544;4.662;2022-12-13T20:00:46;22.35;;;12.40;;
76495;SDS011;65329;52.544;4.662;2022-12-13T20:03:13;24.42;;;12.05;;
76495;SDS011;65329;52.544;4.662;2022-12-13T20:05:40;22.98;;;12.48;;
76495;SDS011;65329;52.544;4.662;2022-12-13T20:08:11;23.90;;;12.23;;
76495;SDS011;65329;52.544;4.662;2022-12-13T20:10:38;24.63;;;12.25;;
76495;SDS011;65329;52.544;4.662;2022-12-13T20:13:05;20.60;;;11.38;;